Terminal Aerodrome Forecast
Issued by NWS Detroit/Pontiac, MI

Home | Current Version | Previous Version | Text Only | Print | Product List | Glossary On
Versions: 1 2 3 4 5 6 7 8 9 10 11 12 13 14 15 16 17 18 19 20 21 22 23 24 25 26 27
615
FTUS43 KDTX 271459 AAA
TAFDTW
TAF AMD
KDTW 271459Z 2715/2818 23016G26KT P6SM SCT060
     FM280000 20006KT P6SM BKN100
     FM280300 VRB04KT P6SM OVC100
     FM281600 17006KT P6SM BKN060=

USA.gov is the U.S. government's official web portal to all federal, state and local government web resources and services.